Bartonia, Indiana
Current Conditions -  °F | °C
As of 10:35 AM on Friday 31 Oct 2014 (Local Time) from KVES Reporting Station
Light Rain Light Rain  
Wind Chill:   Ceiling: 3600
Heat Index:   Visibility: 7mi
Dew Point:   Wind: 7mph
Humidity: 100%   Direction: 290°WNW
Pressure: 29.93"   Gusts: NA
Location:  40.2091°N, 84.8536°W
Report Text: KVES 311435Z AUTO 29006KT 7SM -RA SCT013 SCT027 OVC036 05/05 A2993 RMK AO2
Loading
Personal Weather Stations






























Interactive Weather Map
Tropical Storm Tracking
New forecast layout! Learn more

10-Day Weather Forecast

Advertisements
Track Severe Weather on mobile